AAL2948 KMIA-KCHS
Flight info
| Callsign | AAL2948 |
|---|---|
| Flight time | 1h 11m |
| Altitude | 35000 |
| Route | ALTNN2 DUCEN Q87 VIYAP SAV BAGGY3 |
| Aircraft | B738/M-VGDW/C |
Departure
| Time | 2026-05-03 22:06 |
|---|---|
| Airport | Miami International Airport (KMIA) |
Arrival
| Time | 2026-05-03 23:17 |
|---|---|
| Airport | Charleston International Airport (KCHS) |
| Time | Latitude | Longitude | Altitude | Speed | Heading |
|---|---|---|---|---|---|
| 2026-05-03 21:36 | 25.79723 | -80.28208 | 14 ft | 0 kts | 32° |
| 2026-05-03 21:47 | 25.79716 | -80.28213 | 14 ft | 2 kts | 32° |
| 2026-05-03 21:48 | 25.79707 | -80.28219 | 14 ft | 0 kts | 32° |
| 2026-05-03 21:48 | 25.79696 | -80.28226 | 14 ft | 1 kts | 14° |
| 2026-05-03 21:48 | 25.79681 | -80.28228 | 14 ft | 2 kts | 356° |
| 2026-05-03 21:48 | 25.79667 | -80.28225 | 14 ft | 2 kts | 338° |
| 2026-05-03 21:49 | 25.79655 | -80.28217 | 14 ft | 2 kts | 320° |
| 2026-05-03 21:49 | 25.79646 | -80.28205 | 14 ft | 2 kts | 301° |
| 2026-05-03 21:49 | 25.79641 | -80.28196 | 14 ft | 0 kts | 289° |
| 2026-05-03 21:49 | 25.79640 | -80.28190 | 14 ft | 0 kts | 287° |
| 2026-05-03 21:51 | 25.79640 | -80.28191 | 14 ft | 0 kts | 287° |
| 2026-05-03 21:51 | 25.79650 | -80.28219 | 14 ft | 5 kts | 295° |
| 2026-05-03 21:51 | 25.79671 | -80.28268 | 14 ft | 10 kts | 287° |
| 2026-05-03 21:52 | 25.79674 | -80.28346 | 14 ft | 9 kts | 267° |
| 2026-05-03 21:52 | 25.79670 | -80.28408 | 14 ft | 6 kts | 267° |
| 2026-05-03 21:52 | 25.79668 | -80.28451 | 14 ft | 4 kts | 267° |
| 2026-05-03 21:52 | 25.79667 | -80.28487 | 14 ft | 5 kts | 265° |
| 2026-05-03 21:53 | 25.79661 | -80.28531 | 14 ft | 4 kts | 259° |
| 2026-05-03 21:53 | 25.79654 | -80.28562 | 14 ft | 3 kts | 260° |
| 2026-05-03 21:53 | 25.79651 | -80.28593 | 14 ft | 4 kts | 266° |
| 2026-05-03 21:53 | 25.79649 | -80.28636 | 14 ft | 6 kts | 267° |
| 2026-05-03 21:54 | 25.79646 | -80.28684 | 14 ft | 5 kts | 264° |
| 2026-05-03 21:54 | 25.79642 | -80.28722 | 14 ft | 4 kts | 264° |
| 2026-05-03 21:54 | 25.79642 | -80.28767 | 14 ft | 11 kts | 278° |
| 2026-05-03 21:54 | 25.79720 | -80.28812 | 14 ft | 14 kts | 357° |
| 2026-05-03 21:55 | 25.79818 | -80.28816 | 14 ft | 13 kts | 358° |
| 2026-05-03 21:55 | 25.79909 | -80.28821 | 14 ft | 13 kts | 356° |
| 2026-05-03 21:55 | 25.79996 | -80.28835 | 14 ft | 11 kts | 324° |
| 2026-05-03 21:55 | 25.80011 | -80.28923 | 14 ft | 16 kts | 268° |
| 2026-05-03 21:56 | 25.80006 | -80.29066 | 14 ft | 17 kts | 268° |
| 2026-05-03 21:56 | 25.80001 | -80.29185 | 13 ft | 12 kts | 268° |
| 2026-05-03 21:56 | 25.79997 | -80.29279 | 13 ft | 11 kts | 267° |
| 2026-05-03 21:56 | 25.79993 | -80.29365 | 13 ft | 10 kts | 267° |
| 2026-05-03 21:57 | 25.79988 | -80.29473 | 13 ft | 16 kts | 268° |
| 2026-05-03 21:57 | 25.79984 | -80.29600 | 12 ft | 15 kts | 267° |
| 2026-05-03 21:57 | 25.79979 | -80.29715 | 12 ft | 14 kts | 268° |
| 2026-05-03 21:57 | 25.79974 | -80.29814 | 12 ft | 10 kts | 267° |
| 2026-05-03 21:58 | 25.79972 | -80.29868 | 12 ft | 2 kts | 268° |
| 2026-05-03 21:59 | 25.79971 | -80.29878 | 12 ft | 4 kts | 268° |
| 2026-05-03 21:59 | 25.79970 | -80.29922 | 12 ft | 5 kts | 270° |
| 2026-05-03 22:00 | 25.79974 | -80.29948 | 12 ft | 0 kts | 283° |
| 2026-05-03 22:04 | 25.79976 | -80.29957 | 12 ft | 5 kts | 285° |
| 2026-05-03 22:04 | 25.79995 | -80.30032 | 12 ft | 14 kts | 287° |
| 2026-05-03 22:04 | 25.80034 | -80.30121 | 12 ft | 9 kts | 338° |
| 2026-05-03 22:04 | 25.80071 | -80.30097 | 12 ft | 6 kts | 82° |
| 2026-05-03 22:05 | 25.80072 | -80.30077 | 12 ft | 0 kts | 86° |
| 2026-05-03 22:05 | 25.80072 | -80.30075 | 12 ft | 2 kts | 86° |
| 2026-05-03 22:05 | 25.80080 | -80.29890 | 12 ft | 63 kts | 87° |
| 2026-05-03 22:06 | 25.80113 | -80.29108 | 14 ft | 139 kts | 88° |
| 2026-05-03 22:06 | 25.80167 | -80.27784 | 71 ft | 196 kts | 87° |
| 2026-05-03 22:06 | 25.80229 | -80.26235 | 916 ft | 203 kts | 86° |
| 2026-05-03 22:06 | 25.80286 | -80.24743 | 1820 ft | 199 kts | 86° |
| 2026-05-03 22:07 | 25.80360 | -80.23118 | 1980 ft | 225 kts | 85° |
| 2026-05-03 22:07 | 25.80438 | -80.21336 | 2052 ft | 240 kts | 85° |
| 2026-05-03 22:07 | 25.80694 | -80.19486 | 1619 ft | 248 kts | 72° |
| 2026-05-03 22:07 | 25.81501 | -80.17739 | 1536 ft | 267 kts | 50° |
| 2026-05-03 22:08 | 25.82986 | -80.16451 | 2269 ft | 277 kts | 23° |
| 2026-05-03 22:08 | 25.84767 | -80.15952 | 3305 ft | 263 kts | 6° |
| 2026-05-03 22:08 | 25.86631 | -80.15813 | 3499 ft | 269 kts | 1° |
| 2026-05-03 22:08 | 25.88487 | -80.15743 | 3498 ft | 266 kts | 359° |
| 2026-05-03 22:09 | 25.90313 | -80.15984 | 3649 ft | 265 kts | 345° |
| 2026-05-03 22:09 | 25.92116 | -80.16582 | 4175 ft | 276 kts | 340° |
| 2026-05-03 22:09 | 25.93867 | -80.17241 | 5222 ft | 264 kts | 339° |
| 2026-05-03 22:10 | 25.97497 | -80.18554 | 6060 ft | 281 kts | 340° |
| 2026-05-03 22:10 | 25.99376 | -80.19098 | 7028 ft | 283 kts | 347° |
| 2026-05-03 22:10 | 26.01328 | -80.19387 | 7866 ft | 288 kts | 351° |
| 2026-05-03 22:10 | 26.03328 | -80.19569 | 8390 ft | 292 kts | 352° |
| 2026-05-03 22:11 | 26.05380 | -80.19736 | 8805 ft | 293 kts | 352° |
| 2026-05-03 22:11 | 26.07407 | -80.19913 | 9216 ft | 294 kts | 351° |
| 2026-05-03 22:11 | 26.09456 | -80.20114 | 9625 ft | 296 kts | 351° |
| 2026-05-03 22:11 | 26.11497 | -80.20322 | 10034 ft | 296 kts | 351° |
| 2026-05-03 22:12 | 26.13587 | -80.20538 | 10449 ft | 301 kts | 350° |
| 2026-05-03 22:12 | 26.15658 | -80.20754 | 10854 ft | 302 kts | 351° |
| 2026-05-03 22:12 | 26.17783 | -80.20974 | 11268 ft | 307 kts | 350° |
| 2026-05-03 22:12 | 26.19954 | -80.21203 | 11684 ft | 324 kts | 351° |
| 2026-05-03 22:13 | 26.22233 | -80.21426 | 12148 ft | 327 kts | 351° |
| 2026-05-03 22:13 | 26.24499 | -80.21628 | 12581 ft | 329 kts | 351° |
| 2026-05-03 22:13 | 26.26796 | -80.21827 | 12915 ft | 335 kts | 351° |
| 2026-05-03 22:13 | 26.29159 | -80.22032 | 13337 ft | 337 kts | 351° |
| 2026-05-03 22:14 | 26.31466 | -80.22232 | 13813 ft | 330 kts | 351° |
| 2026-05-03 22:14 | 26.33708 | -80.22422 | 14217 ft | 316 kts | 350° |
| 2026-05-03 22:14 | 26.35897 | -80.22617 | 14630 ft | 322 kts | 350° |
| 2026-05-03 22:14 | 26.38151 | -80.22826 | 15048 ft | 324 kts | 349° |
| 2026-05-03 22:15 | 26.40439 | -80.23052 | 15463 ft | 333 kts | 349° |
| 2026-05-03 22:15 | 26.42755 | -80.23294 | 15877 ft | 340 kts | 349° |
| 2026-05-03 22:15 | 26.45159 | -80.23547 | 16306 ft | 348 kts | 349° |
| 2026-05-03 22:15 | 26.47600 | -80.23804 | 16684 ft | 361 kts | 349° |
| 2026-05-03 22:16 | 26.50159 | -80.24074 | 16953 ft | 373 kts | 349° |
| 2026-05-03 22:16 | 26.52744 | -80.24342 | 17015 ft | 379 kts | 349° |
| 2026-05-03 22:16 | 26.55456 | -80.24625 | 17249 ft | 395 kts | 349° |
| 2026-05-03 22:16 | 26.58240 | -80.24956 | 17495 ft | 408 kts | 348° |
| 2026-05-03 22:17 | 26.61052 | -80.25388 | 17988 ft | 413 kts | 346° |
| 2026-05-03 22:17 | 26.63906 | -80.25876 | 18621 ft | 415 kts | 346° |
| 2026-05-03 22:17 | 26.66756 | -80.26379 | 19147 ft | 419 kts | 345° |
| 2026-05-03 22:17 | 26.69625 | -80.26995 | 19690 ft | 420 kts | 341° |
| 2026-05-03 22:18 | 26.72458 | -80.27873 | 20276 ft | 420 kts | 336° |
| 2026-05-03 22:18 | 26.75256 | -80.28924 | 20752 ft | 424 kts | 335° |
| 2026-05-03 22:18 | 26.78018 | -80.30054 | 21263 ft | 426 kts | 334° |
| 2026-05-03 22:18 | 26.80809 | -80.31233 | 21786 ft | 429 kts | 333° |
| 2026-05-03 22:19 | 26.83618 | -80.32427 | 22291 ft | 432 kts | 333° |
| 2026-05-03 22:19 | 26.86430 | -80.33624 | 22813 ft | 434 kts | 333° |
| 2026-05-03 22:19 | 26.89290 | -80.34838 | 23179 ft | 441 kts | 333° |
| 2026-05-03 22:19 | 26.92162 | -80.36053 | 23747 ft | 442 kts | 333° |
| 2026-05-03 22:20 | 26.95032 | -80.37261 | 24121 ft | 448 kts | 333° |
| 2026-05-03 22:20 | 26.97978 | -80.38477 | 24603 ft | 451 kts | 334° |
| 2026-05-03 22:20 | 27.00944 | -80.39679 | 25055 ft | 454 kts | 334° |
| 2026-05-03 22:20 | 27.03934 | -80.40881 | 25506 ft | 457 kts | 334° |
| 2026-05-03 22:21 | 27.06924 | -80.42080 | 25965 ft | 460 kts | 334° |
| 2026-05-03 22:21 | 27.09942 | -80.43294 | 26380 ft | 464 kts | 333° |
| 2026-05-03 22:21 | 27.12987 | -80.44569 | 26817 ft | 465 kts | 332° |
| 2026-05-03 22:21 | 27.15996 | -80.45879 | 27241 ft | 467 kts | 331° |
| 2026-05-03 22:22 | 27.19037 | -80.47225 | 27843 ft | 465 kts | 330° |
| 2026-05-03 22:22 | 27.22029 | -80.48561 | 28170 ft | 469 kts | 330° |
| 2026-05-03 22:22 | 27.25076 | -80.49926 | 28634 ft | 469 kts | 330° |
| 2026-05-03 22:22 | 27.28123 | -80.51289 | 28972 ft | 472 kts | 330° |
| 2026-05-03 22:23 | 27.31177 | -80.52653 | 29314 ft | 475 kts | 330° |
| 2026-05-03 22:23 | 27.34237 | -80.54019 | 29573 ft | 480 kts | 330° |
| 2026-05-03 22:23 | 27.37379 | -80.55414 | 29963 ft | 480 kts | 330° |
| 2026-05-03 22:23 | 27.40490 | -80.56732 | 30360 ft | 483 kts | 330° |
| 2026-05-03 22:24 | 27.43693 | -80.58031 | 30568 ft | 487 kts | 331° |
| 2026-05-03 22:24 | 27.46855 | -80.59276 | 30961 ft | 486 kts | 331° |
| 2026-05-03 22:24 | 27.50065 | -80.60526 | 31230 ft | 489 kts | 331° |
| 2026-05-03 22:24 | 27.53285 | -80.61781 | 31525 ft | 487 kts | 331° |
| 2026-05-03 22:25 | 27.56506 | -80.63037 | 31823 ft | 486 kts | 330° |
| 2026-05-03 22:25 | 27.59642 | -80.64260 | 32443 ft | 478 kts | 330° |
| 2026-05-03 22:25 | 27.62799 | -80.65495 | 32936 ft | 471 kts | 329° |
| 2026-05-03 22:25 | 27.65844 | -80.66682 | 33905 ft | 458 kts | 328° |
| 2026-05-03 22:26 | 27.68811 | -80.67841 | 34761 ft | 446 kts | 328° |
| 2026-05-03 22:26 | 27.71735 | -80.68996 | 35007 ft | 444 kts | 327° |
| 2026-05-03 22:26 | 27.74620 | -80.70147 | 35040 ft | 439 kts | 327° |
| 2026-05-03 22:27 | 27.80420 | -80.72498 | 35043 ft | 442 kts | 327° |
| 2026-05-03 22:27 | 27.83242 | -80.73626 | 35040 ft | 429 kts | 327° |
| 2026-05-03 22:27 | 27.86070 | -80.74755 | 35048 ft | 429 kts | 327° |
| 2026-05-03 22:28 | 27.91606 | -80.76978 | 35052 ft | 425 kts | 326° |
| 2026-05-03 22:28 | 27.97254 | -80.79280 | 35049 ft | 437 kts | 327° |
| 2026-05-03 22:29 | 28.03024 | -80.81616 | 35061 ft | 443 kts | 327° |
| 2026-05-03 22:29 | 28.08835 | -80.83948 | 35053 ft | 447 kts | 327° |
| 2026-05-03 22:30 | 28.14765 | -80.86340 | 35054 ft | 452 kts | 327° |
| 2026-05-03 22:30 | 28.20641 | -80.88696 | 35066 ft | 449 kts | 327° |
| 2026-05-03 22:31 | 28.26482 | -80.91039 | 35055 ft | 446 kts | 327° |
| 2026-05-03 22:31 | 28.32352 | -80.93415 | 35064 ft | 450 kts | 327° |
| 2026-05-03 22:32 | 28.38289 | -80.95820 | 35067 ft | 452 kts | 327° |
| 2026-05-03 22:32 | 28.44127 | -80.98174 | 35068 ft | 444 kts | 326° |
| 2026-05-03 22:33 | 28.49996 | -81.00552 | 35075 ft | 448 kts | 326° |
| 2026-05-03 22:33 | 28.55878 | -81.02940 | 35070 ft | 451 kts | 327° |
| 2026-05-03 22:34 | 28.61816 | -81.05357 | 35075 ft | 450 kts | 326° |
| 2026-05-03 22:34 | 28.67662 | -81.07727 | 35071 ft | 446 kts | 326° |
| 2026-05-03 22:35 | 28.73480 | -81.10104 | 35078 ft | 448 kts | 326° |
| 2026-05-03 22:35 | 28.79373 | -81.12516 | 35070 ft | 448 kts | 326° |
| 2026-05-03 22:36 | 28.85279 | -81.14931 | 35073 ft | 451 kts | 326° |
| 2026-05-03 22:36 | 28.91173 | -81.17332 | 35072 ft | 448 kts | 326° |
| 2026-05-03 22:37 | 28.97015 | -81.19718 | 35084 ft | 445 kts | 326° |
| 2026-05-03 22:37 | 29.02864 | -81.22115 | 35073 ft | 447 kts | 326° |
| 2026-05-03 22:38 | 29.08680 | -81.24511 | 35089 ft | 451 kts | 326° |
| 2026-05-03 22:38 | 29.14615 | -81.26955 | 35077 ft | 451 kts | 326° |
| 2026-05-03 22:39 | 29.20516 | -81.29369 | 35081 ft | 447 kts | 326° |
| 2026-05-03 22:39 | 29.26440 | -81.31630 | 35092 ft | 457 kts | 331° |
| 2026-05-03 22:39 | 29.29631 | -81.32416 | 35092 ft | 471 kts | 338° |
| 2026-05-03 22:40 | 29.32908 | -81.32874 | 35081 ft | 477 kts | 342° |
| 2026-05-03 22:40 | 29.39571 | -81.33318 | 35090 ft | 483 kts | 345° |
| 2026-05-03 22:41 | 29.46331 | -81.33596 | 35081 ft | 485 kts | 345° |
| 2026-05-03 22:41 | 29.53086 | -81.33896 | 35096 ft | 484 kts | 345° |
| 2026-05-03 22:42 | 29.59820 | -81.34235 | 35097 ft | 481 kts | 345° |
| 2026-05-03 22:42 | 29.66488 | -81.34594 | 35091 ft | 478 kts | 345° |
| 2026-05-03 22:43 | 29.73187 | -81.34997 | 35114 ft | 482 kts | 345° |
| 2026-05-03 22:43 | 29.79850 | -81.35384 | 35099 ft | 476 kts | 345° |
| 2026-05-03 22:44 | 29.86492 | -81.35782 | 35103 ft | 478 kts | 345° |
| 2026-05-03 22:44 | 29.93220 | -81.36191 | 35111 ft | 483 kts | 345° |
| 2026-05-03 22:45 | 29.99872 | -81.36584 | 35119 ft | 476 kts | 345° |
| 2026-05-03 22:45 | 30.06531 | -81.36981 | 35112 ft | 480 kts | 345° |
| 2026-05-03 22:46 | 30.13142 | -81.37380 | 35107 ft | 478 kts | 345° |
| 2026-05-03 22:46 | 30.19858 | -81.37784 | 35109 ft | 479 kts | 345° |
| 2026-05-03 22:47 | 30.26501 | -81.38177 | 35109 ft | 476 kts | 346° |
| 2026-05-03 22:47 | 30.33161 | -81.38577 | 35101 ft | 478 kts | 346° |
| 2026-05-03 22:48 | 30.39933 | -81.38982 | 35108 ft | 482 kts | 346° |
| 2026-05-03 22:48 | 30.46568 | -81.39372 | 35117 ft | 478 kts | 345° |
| 2026-05-03 22:49 | 30.53227 | -81.39755 | 35114 ft | 483 kts | 346° |
| 2026-05-03 22:49 | 30.59937 | -81.40105 | 35105 ft | 480 kts | 346° |
| 2026-05-03 22:50 | 30.66611 | -81.40447 | 35108 ft | 481 kts | 347° |
| 2026-05-03 22:50 | 30.73334 | -81.40801 | 35114 ft | 479 kts | 346° |
| 2026-05-03 22:51 | 30.79992 | -81.41143 | 35107 ft | 479 kts | 347° |
| 2026-05-03 22:51 | 30.86741 | -81.41508 | 35099 ft | 484 kts | 347° |
| 2026-05-03 22:52 | 30.93456 | -81.41861 | 35097 ft | 480 kts | 347° |
| 2026-05-03 22:52 | 31.00124 | -81.42210 | 35100 ft | 480 kts | 347° |
| 2026-05-03 22:53 | 31.06794 | -81.42572 | 35104 ft | 479 kts | 347° |
| 2026-05-03 22:53 | 31.13477 | -81.42934 | 35106 ft | 482 kts | 347° |
| 2026-05-03 22:54 | 31.20135 | -81.43277 | 35106 ft | 480 kts | 348° |
| 2026-05-03 22:54 | 31.26916 | -81.43071 | 35104 ft | 490 kts | 356° |
| 2026-05-03 22:55 | 31.33709 | -81.41688 | 35107 ft | 500 kts | 3° |
| 2026-05-03 22:55 | 31.40508 | -81.39829 | 35109 ft | 503 kts | 5° |
| 2026-05-03 22:56 | 31.47360 | -81.37902 | 35099 ft | 502 kts | 5° |
| 2026-05-03 22:56 | 31.54123 | -81.36032 | 35102 ft | 501 kts | 4° |
| 2026-05-03 22:57 | 31.60975 | -81.34187 | 35095 ft | 502 kts | 4° |
| 2026-05-03 22:57 | 31.67746 | -81.32390 | 35096 ft | 502 kts | 4° |
| 2026-05-03 22:58 | 31.74564 | -81.30585 | 34879 ft | 503 kts | 4° |
| 2026-05-03 22:58 | 31.78004 | -81.29677 | 34589 ft | 502 kts | 4° |
| 2026-05-03 22:58 | 31.81375 | -81.28784 | 34081 ft | 501 kts | 5° |
| 2026-05-03 22:58 | 31.84783 | -81.27880 | 33338 ft | 503 kts | 5° |
| 2026-05-03 22:59 | 31.88179 | -81.26981 | 32542 ft | 504 kts | 5° |
| 2026-05-03 22:59 | 31.91604 | -81.26070 | 31708 ft | 501 kts | 5° |
| 2026-05-03 22:59 | 31.94983 | -81.25166 | 30908 ft | 494 kts | 5° |
| 2026-05-03 22:59 | 31.98292 | -81.24275 | 30331 ft | 483 kts | 6° |
| 2026-05-03 23:00 | 32.01521 | -81.23403 | 29746 ft | 473 kts | 5° |
| 2026-05-03 23:00 | 32.04719 | -81.22546 | 28899 ft | 472 kts | 5° |
| 2026-05-03 23:00 | 32.07908 | -81.21673 | 27834 ft | 474 kts | 7° |
| 2026-05-03 23:00 | 32.11086 | -81.20526 | 26557 ft | 480 kts | 15° |
| 2026-05-03 23:01 | 32.14096 | -81.18882 | 25291 ft | 485 kts | 25° |
| 2026-05-03 23:01 | 32.16901 | -81.16666 | 24020 ft | 489 kts | 35° |
| 2026-05-03 23:01 | 32.19393 | -81.13913 | 22843 ft | 490 kts | 45° |
| 2026-05-03 23:01 | 32.21483 | -81.10834 | 22401 ft | 481 kts | 52° |
| 2026-05-03 23:02 | 32.23386 | -81.07611 | 22130 ft | 467 kts | 54° |
| 2026-05-03 23:02 | 32.25126 | -81.04529 | 21871 ft | 446 kts | 54° |
| 2026-05-03 23:02 | 32.26828 | -81.01502 | 21652 ft | 435 kts | 54° |
| 2026-05-03 23:02 | 32.28522 | -80.98537 | 21411 ft | 437 kts | 53° |
| 2026-05-03 23:03 | 32.30236 | -80.95601 | 21162 ft | 433 kts | 53° |
| 2026-05-03 23:03 | 32.31940 | -80.92739 | 20908 ft | 429 kts | 52° |
| 2026-05-03 23:03 | 32.33693 | -80.89844 | 20689 ft | 424 kts | 52° |
| 2026-05-03 23:03 | 32.35397 | -80.87063 | 20113 ft | 421 kts | 52° |
| 2026-05-03 23:04 | 32.37112 | -80.84297 | 19319 ft | 414 kts | 51° |
| 2026-05-03 23:04 | 32.38791 | -80.81609 | 18500 ft | 408 kts | 51° |
| 2026-05-03 23:04 | 32.40464 | -80.78938 | 17725 ft | 400 kts | 51° |
| 2026-05-03 23:04 | 32.42115 | -80.76298 | 16859 ft | 395 kts | 51° |
| 2026-05-03 23:05 | 32.43711 | -80.73740 | 16036 ft | 390 kts | 51° |
| 2026-05-03 23:05 | 32.45306 | -80.71178 | 15232 ft | 383 kts | 51° |
| 2026-05-03 23:05 | 32.46869 | -80.68662 | 14386 ft | 379 kts | 51° |
| 2026-05-03 23:05 | 32.48417 | -80.66163 | 13564 ft | 374 kts | 51° |
| 2026-05-03 23:06 | 32.49919 | -80.63737 | 12846 ft | 366 kts | 51° |
| 2026-05-03 23:06 | 32.51408 | -80.61330 | 12095 ft | 359 kts | 51° |
| 2026-05-03 23:06 | 32.52864 | -80.58981 | 11426 ft | 352 kts | 51° |
| 2026-05-03 23:06 | 32.54306 | -80.56660 | 11120 ft | 349 kts | 51° |
| 2026-05-03 23:07 | 32.55744 | -80.54349 | 11005 ft | 348 kts | 51° |
| 2026-05-03 23:07 | 32.57195 | -80.52019 | 10994 ft | 351 kts | 51° |
| 2026-05-03 23:07 | 32.58633 | -80.49709 | 10987 ft | 350 kts | 50° |
| 2026-05-03 23:07 | 32.60066 | -80.47401 | 10983 ft | 348 kts | 51° |
| 2026-05-03 23:08 | 32.61473 | -80.45131 | 10981 ft | 335 kts | 50° |
| 2026-05-03 23:08 | 32.62851 | -80.42970 | 10980 ft | 322 kts | 49° |
| 2026-05-03 23:08 | 32.64213 | -80.40919 | 10979 ft | 309 kts | 48° |
| 2026-05-03 23:08 | 32.65539 | -80.38953 | 10981 ft | 297 kts | 47° |
| 2026-05-03 23:09 | 32.66814 | -80.37062 | 10983 ft | 293 kts | 47° |
| 2026-05-03 23:09 | 32.68125 | -80.35205 | 10985 ft | 294 kts | 42° |
| 2026-05-03 23:09 | 32.69659 | -80.33685 | 10807 ft | 284 kts | 26° |
| 2026-05-03 23:09 | 32.71437 | -80.32697 | 10423 ft | 279 kts | 17° |
| 2026-05-03 23:10 | 32.73248 | -80.31908 | 10052 ft | 277 kts | 16° |
| 2026-05-03 23:10 | 32.75038 | -80.31117 | 9738 ft | 274 kts | 17° |
| 2026-05-03 23:10 | 32.76808 | -80.30277 | 9389 ft | 273 kts | 19° |
| 2026-05-03 23:10 | 32.78563 | -80.29404 | 8993 ft | 272 kts | 19° |
| 2026-05-03 23:11 | 32.80275 | -80.28536 | 8693 ft | 266 kts | 20° |
| 2026-05-03 23:11 | 32.81982 | -80.27672 | 8089 ft | 271 kts | 20° |
| 2026-05-03 23:11 | 32.83727 | -80.26792 | 7548 ft | 271 kts | 20° |
| 2026-05-03 23:11 | 32.85447 | -80.25926 | 7093 ft | 268 kts | 20° |
| 2026-05-03 23:12 | 32.87139 | -80.25074 | 6688 ft | 259 kts | 21° |
| 2026-05-03 23:12 | 32.88762 | -80.24255 | 6294 ft | 251 kts | 20° |
| 2026-05-03 23:12 | 32.90353 | -80.23454 | 5904 ft | 244 kts | 20° |
| 2026-05-03 23:12 | 32.91865 | -80.22668 | 5523 ft | 234 kts | 27° |
| 2026-05-03 23:13 | 32.93089 | -80.21418 | 5118 ft | 229 kts | 49° |
| 2026-05-03 23:13 | 32.94040 | -80.19952 | 4728 ft | 223 kts | 52° |
| 2026-05-03 23:13 | 32.94961 | -80.18481 | 4334 ft | 217 kts | 52° |
| 2026-05-03 23:13 | 32.95857 | -80.17069 | 3926 ft | 213 kts | 52° |
| 2026-05-03 23:14 | 32.96729 | -80.15672 | 3527 ft | 209 kts | 54° |
| 2026-05-03 23:14 | 32.97577 | -80.14276 | 3070 ft | 209 kts | 54° |
| 2026-05-03 23:14 | 32.98264 | -80.12817 | 2701 ft | 191 kts | 78° |
| 2026-05-03 23:14 | 32.98141 | -80.11406 | 2438 ft | 167 kts | 119° |
| 2026-05-03 23:15 | 32.97515 | -80.10326 | 2126 ft | 152 kts | 130° |
| 2026-05-03 23:15 | 32.96848 | -80.09401 | 1831 ft | 149 kts | 135° |
| 2026-05-03 23:15 | 32.96095 | -80.08573 | 1496 ft | 146 kts | 143° |
| 2026-05-03 23:15 | 32.95275 | -80.07864 | 1135 ft | 144 kts | 146° |
| 2026-05-03 23:16 | 32.94466 | -80.07198 | 884 ft | 141 kts | 149° |
| 2026-05-03 23:16 | 32.93651 | -80.06575 | 673 ft | 136 kts | 149° |
| 2026-05-03 23:16 | 32.92845 | -80.05969 | 464 ft | 136 kts | 150° |
| 2026-05-03 23:16 | 32.92043 | -80.05363 | 280 ft | 135 kts | 149° |
| 2026-05-03 23:17 | 32.91262 | -80.04774 | 100 ft | 134 kts | 149° |
| 2026-05-03 23:17 | 32.90514 | -80.04211 | 58 ft | 109 kts | 148° |
| 2026-05-03 23:17 | 32.90033 | -80.03847 | 57 ft | 56 kts | 148° |
| 2026-05-03 23:17 | 32.89788 | -80.03662 | 56 ft | 30 kts | 147° |
| 2026-05-03 23:18 | 32.89600 | -80.03579 | 55 ft | 28 kts | 183° |
| 2026-05-03 23:18 | 32.89420 | -80.03585 | 53 ft | 18 kts | 181° |
| 2026-05-03 23:18 | 32.89359 | -80.03587 | 52 ft | 5 kts | 182° |
| 2026-05-03 23:18 | 32.89273 | -80.03590 | 51 ft | 15 kts | 181° |
| 2026-05-03 23:19 | 32.89161 | -80.03594 | 49 ft | 17 kts | 182° |
| 2026-05-03 23:19 | 32.89024 | -80.03599 | 47 ft | 21 kts | 182° |
| 2026-05-03 23:19 | 32.88869 | -80.03622 | 45 ft | 23 kts | 188° |
| 2026-05-03 23:19 | 32.88758 | -80.03673 | 43 ft | 14 kts | 258° |
| 2026-05-03 23:20 | 32.88734 | -80.03812 | 43 ft | 17 kts | 243° |
| 2026-05-03 23:20 | 32.88675 | -80.03899 | 42 ft | 12 kts | 221° |
| 2026-05-03 23:20 | 32.88611 | -80.03909 | 41 ft | 9 kts | 121° |
| 2026-05-03 23:20 | 32.88603 | -80.03869 | 41 ft | 0 kts | 98° |
| 2026-05-03 23:21 | 32.88603 | -80.03868 | 41 ft | 0 kts | 98° |